createdAt,value
2017-09-23T00:00:56.889Z,11.40
2017-09-23T00:03:23.157Z,8.80
2017-09-23T00:05:49.396Z,12.67
2017-09-23T00:08:15.612Z,11.63
2017-09-23T00:10:41.872Z,9.90
2017-09-23T00:13:08.105Z,10.73
2017-09-23T00:15:34.339Z,9.03
2017-09-23T00:18:00.635Z,11.93
2017-09-23T00:20:26.881Z,11.40
2017-09-23T00:22:53.117Z,11.77
2017-09-23T00:25:19.390Z,9.70
2017-09-23T00:27:45.621Z,15.03
2017-09-23T00:30:11.854Z,9.07
2017-09-23T00:32:38.114Z,9.40
2017-09-23T00:35:04.342Z,10.20
2017-09-23T00:37:30.584Z,7.60
2017-09-23T00:39:56.871Z,7.43
2017-09-23T00:42:23.365Z,7.17
2017-09-23T00:44:49.922Z,8.27
2017-09-23T00:47:16.205Z,6.90
2017-09-23T00:49:42.434Z,8.47
2017-09-23T00:52:08.695Z,6.93
2017-09-23T00:54:34.965Z,7.33
2017-09-23T00:57:01.182Z,6.60
2017-09-23T00:59:27.444Z,10.90
2017-09-23T01:01:53.716Z,8.40
2017-09-23T01:04:19.961Z,6.47
2017-09-23T01:06:46.224Z,7.30
2017-09-23T01:09:12.481Z,7.80
2017-09-23T01:11:38.829Z,7.30
2017-09-23T01:14:05.041Z,6.57
2017-09-23T01:16:31.507Z,17.27
2017-09-23T01:18:57.748Z,7.00
2017-09-23T01:21:23.980Z,6.63
2017-09-23T01:23:50.255Z,12.23
2017-09-23T01:26:16.465Z,9.80
2017-09-23T01:28:42.748Z,7.57
2017-09-23T01:31:09.001Z,6.47
2017-09-23T01:33:35.223Z,8.70
2017-09-23T01:36:01.454Z,7.30
2017-09-23T01:38:27.736Z,7.57
2017-09-23T01:40:53.966Z,6.37
2017-09-23T01:43:20.182Z,8.17
2017-09-23T01:45:46.465Z,8.43
2017-09-23T01:48:12.723Z,7.37
2017-09-23T01:50:38.972Z,6.43
2017-09-23T01:53:05.236Z,9.00
2017-09-23T01:55:31.457Z,6.23
2017-09-23T01:57:57.685Z,6.30
2017-09-23T02:00:23.983Z,6.00
2017-09-23T02:02:50.238Z,5.20
2017-09-23T02:05:16.465Z,6.10
2017-09-23T02:07:42.721Z,5.63
2017-09-23T02:10:08.943Z,6.03
2017-09-23T02:12:35.152Z,5.17
2017-09-23T02:15:01.442Z,6.20
2017-09-23T02:17:27.667Z,6.93
2017-09-23T02:19:53.921Z,7.10
2017-09-23T02:22:20.192Z,6.37
2017-09-23T02:24:46.437Z,7.93
2017-09-23T02:27:12.650Z,6.97
2017-09-23T02:29:38.928Z,6.90
2017-09-23T02:32:05.148Z,6.53
2017-09-23T02:34:31.368Z,8.50
2017-09-23T02:36:57.656Z,6.73
2017-09-23T02:39:23.896Z,11.60
2017-09-23T02:41:50.129Z,7.23
2017-09-23T02:44:16.559Z,7.60
2017-09-23T02:46:42.800Z,6.83
2017-09-23T02:49:09.056Z,7.83
2017-09-23T02:51:35.321Z,7.97
2017-09-23T02:54:01.540Z,7.87
2017-09-23T02:56:27.799Z,6.90
2017-09-23T02:58:54.093Z,7.60
2017-09-23T03:01:20.335Z,8.20
2017-09-23T03:03:46.553Z,10.13
2017-09-23T03:06:12.853Z,8.00
2017-09-23T03:08:39.072Z,7.53
2017-09-23T03:11:05.281Z,8.87
2017-09-23T03:13:31.552Z,9.93
2017-09-23T03:15:57.796Z,17.63
2017-09-23T03:18:24.041Z,10.80
2017-09-23T03:20:50.324Z,9.80
2017-09-23T03:23:16.562Z,7.40
2017-09-23T03:25:42.966Z,8.93
2017-09-23T03:28:09.231Z,9.50
2017-09-23T03:30:35.476Z,11.33
2017-09-23T03:33:01.719Z,9.87
2017-09-23T03:35:28.001Z,9.13
2017-09-23T03:37:54.241Z,32.53
2017-09-23T03:40:20.457Z,8.53
2017-09-23T03:42:46.742Z,10.27
2017-09-23T03:45:12.975Z,10.17
2017-09-23T03:47:39.225Z,10.17
2017-09-23T03:50:05.487Z,11.10
2017-09-23T03:52:31.720Z,12.90
2017-09-23T03:54:57.944Z,15.00
2017-09-23T03:57:24.240Z,10.73
2017-09-23T03:59:50.458Z,11.47
2017-09-23T04:02:16.684Z,9.07
2017-09-23T04:04:42.954Z,9.60
2017-09-23T04:07:09.170Z,10.67
2017-09-23T04:09:35.392Z,19.53
2017-09-23T04:12:01.707Z,17.80
2017-09-23T04:14:27.940Z,14.20
2017-09-23T04:16:54.173Z,7.80
2017-09-23T04:19:20.438Z,9.77
2017-09-23T04:21:46.675Z,13.40
2017-09-23T04:24:12.908Z,10.33
2017-09-23T04:26:39.164Z,11.07
2017-09-23T04:29:05.393Z,11.47
2017-09-23T04:31:31.614Z,10.00
2017-09-23T04:33:57.891Z,10.20
2017-09-23T04:36:24.124Z,10.40
2017-09-23T04:38:50.360Z,11.30
2017-09-23T04:41:16.657Z,9.03
2017-09-23T04:43:42.880Z,8.40
2017-09-23T04:46:09.130Z,8.83
2017-09-23T04:48:35.403Z,9.30
2017-09-23T04:51:01.640Z,10.30
2017-09-23T04:53:27.873Z,8.00
2017-09-23T04:55:54.160Z,7.27
2017-09-23T04:58:20.400Z,7.23
2017-09-23T05:00:46.633Z,8.30
2017-09-23T05:03:12.937Z,9.70
2017-09-23T05:05:39.169Z,10.93
2017-09-23T05:08:05.389Z,9.70
2017-09-23T05:10:31.662Z,7.93
2017-09-23T05:12:57.899Z,15.03
2017-09-23T05:15:24.130Z,10.00
2017-09-23T05:17:50.407Z,14.60
2017-09-23T05:20:16.635Z,16.93
2017-09-23T05:22:42.861Z,11.33
2017-09-23T05:25:09.152Z,23.53
2017-09-23T05:27:35.379Z,10.07
2017-09-23T05:30:01.624Z,16.33
2017-09-23T05:32:27.868Z,6.83
2017-09-23T05:34:54.187Z,6.70
2017-09-23T05:37:20.423Z,10.40
2017-09-23T05:39:46.718Z,7.67
2017-09-23T05:42:12.956Z,6.70
2017-09-23T05:44:39.221Z,7.17
2017-09-23T05:47:05.637Z,12.10
2017-09-23T05:49:31.887Z,5.33
2017-09-23T05:51:58.172Z,10.23
2017-09-23T05:54:24.399Z,9.97
2017-09-23T05:56:50.632Z,7.00
2017-09-23T05:59:16.886Z,9.97
2017-09-23T06:01:44.749Z,6.53
2017-09-23T06:04:11.012Z,8.80
2017-09-23T06:06:37.285Z,6.03
2017-09-23T06:09:03.536Z,9.20
2017-09-23T06:11:29.778Z,6.33
2017-09-23T06:13:56.058Z,31.27
2017-09-23T06:16:22.308Z,6.87
2017-09-23T06:18:48.558Z,5.10
2017-09-23T06:21:14.829Z,8.07
2017-09-23T06:23:41.064Z,8.57
2017-09-23T06:26:07.316Z,5.40
2017-09-23T06:28:33.601Z,6.70
2017-09-23T06:30:59.842Z,6.80
2017-09-23T06:33:26.079Z,4.87
2017-09-23T06:35:52.357Z,4.43
2017-09-23T06:38:18.589Z,4.70
2017-09-23T06:40:44.810Z,3.90
2017-09-23T06:43:11.100Z,3.00
2017-09-23T06:45:37.334Z,3.93
2017-09-23T06:48:03.568Z,13.93
2017-09-23T06:50:29.849Z,3.87
2017-09-23T06:52:56.084Z,5.03
2017-09-23T06:55:22.307Z,11.00
2017-09-23T06:57:48.575Z,3.73
2017-09-23T07:00:14.799Z,3.70
2017-09-23T07:02:41.029Z,5.90
2017-09-23T07:05:07.304Z,4.67
2017-09-23T07:07:33.560Z,4.57
2017-09-23T07:09:59.782Z,5.03
2017-09-23T07:12:26.066Z,3.83
2017-09-23T07:14:52.317Z,6.30
2017-09-23T07:17:18.535Z,3.97
2017-09-23T07:19:44.798Z,6.10
2017-09-23T07:22:11.033Z,8.17
2017-09-23T07:24:37.273Z,5.20
2017-09-23T07:27:03.540Z,4.50
2017-09-23T07:29:29.776Z,4.87
2017-09-23T07:31:56.009Z,3.60
2017-09-23T07:34:22.288Z,6.03
2017-09-23T07:36:48.521Z,4.00
2017-09-23T07:39:14.764Z,4.03
2017-09-23T07:41:41.064Z,3.17
2017-09-23T07:44:07.322Z,3.60
2017-09-23T07:46:33.577Z,8.70
2017-09-23T07:48:59.896Z,4.17
2017-09-23T07:51:26.156Z,13.43
2017-09-23T07:53:52.379Z,4.87
2017-09-23T07:56:18.662Z,4.47
2017-09-23T07:58:44.976Z,3.90
2017-09-23T08:01:11.219Z,3.23
2017-09-23T08:03:37.541Z,4.93
2017-09-23T08:06:03.820Z,3.50
2017-09-23T08:08:30.257Z,3.27
2017-09-23T08:10:57.600Z,6.53
2017-09-23T08:13:23.866Z,4.20
2017-09-23T08:15:50.126Z,4.07
2017-09-23T08:18:17.393Z,4.10
2017-09-23T08:20:43.648Z,2.87
2017-09-23T08:23:10.231Z,2.33
2017-09-23T08:25:36.533Z,4.23
2017-09-23T08:28:03.148Z,3.00
2017-09-23T08:30:29.386Z,2.50
2017-09-23T08:32:55.673Z,3.70
2017-09-23T08:35:21.908Z,2.83
2017-09-23T08:37:48.176Z,3.50
2017-09-23T08:40:15.084Z,2.80
2017-09-23T08:42:41.387Z,3.23
2017-09-23T08:45:07.868Z,7.03
2017-09-23T08:47:34.292Z,7.67
2017-09-23T08:50:00.814Z,2.90
2017-09-23T08:52:27.412Z,3.33
2017-09-23T08:54:53.699Z,2.67
2017-09-23T08:57:19.940Z,2.80
2017-09-23T08:59:46.212Z,3.57
2017-09-23T09:02:12.544Z,3.33
2017-09-23T09:04:38.805Z,13.83
2017-09-23T09:07:05.176Z,6.03
2017-09-23T09:09:31.466Z,2.93
2017-09-23T09:11:57.723Z,3.23
2017-09-23T09:14:23.973Z,3.50
2017-09-23T09:16:50.288Z,2.67
2017-09-23T09:19:16.546Z,5.37
2017-09-23T09:21:42.783Z,22.33
2017-09-23T09:24:09.056Z,3.73
2017-09-23T09:26:35.306Z,9.13
2017-09-23T09:29:01.557Z,2.50
2017-09-23T09:31:27.841Z,10.00
2017-09-23T09:33:54.071Z,2.60
2017-09-23T09:36:20.327Z,3.37
2017-09-23T09:38:46.602Z,2.57
2017-09-23T09:41:12.833Z,2.67
2017-09-23T09:43:39.069Z,2.37
2017-09-23T09:46:05.349Z,5.17
2017-09-23T09:48:31.623Z,2.37
2017-09-23T09:50:57.877Z,3.40
2017-09-23T09:53:24.239Z,5.57
2017-09-23T09:55:50.474Z,2.63
2017-09-23T09:58:16.710Z,7.80
2017-09-23T10:00:42.944Z,8.00
2017-09-23T10:03:09.171Z,3.10
2017-09-23T10:05:35.445Z,6.20
2017-09-23T10:08:01.676Z,3.37
2017-09-23T10:10:27.896Z,2.87
2017-09-23T10:12:54.178Z,5.03
2017-09-23T10:15:20.533Z,3.20
2017-09-23T10:17:46.775Z,6.53
2017-09-23T10:20:13.079Z,3.30
2017-09-23T10:22:39.300Z,3.13
2017-09-23T10:25:05.526Z,3.40
2017-09-23T10:27:31.776Z,3.10
2017-09-23T10:29:58.018Z,25.00
2017-09-23T10:32:24.252Z,3.47
2017-09-23T10:34:50.542Z,2.93
2017-09-23T10:37:16.789Z,2.47
2017-09-23T10:39:43.213Z,3.17
2017-09-23T10:42:10.358Z,8.83
2017-09-23T10:44:37.752Z,5.17
2017-09-23T10:47:04.934Z,8.90
2017-09-23T10:49:32.107Z,11.53
2017-09-23T10:51:59.718Z,3.57
2017-09-23T10:54:27.162Z,3.30
2017-09-23T10:56:53.605Z,10.23
2017-09-23T10:59:20.193Z,5.23
2017-09-23T11:01:46.649Z,3.87
2017-09-23T11:04:12.896Z,3.63
2017-09-23T11:06:39.152Z,19.07
2017-09-23T11:09:05.400Z,2.87
2017-09-23T11:11:31.607Z,3.13
2017-09-23T11:13:57.891Z,2.77
2017-09-23T11:16:24.321Z,3.17
2017-09-23T11:18:50.539Z,5.30
2017-09-23T11:21:16.779Z,4.07
2017-09-23T11:23:43.115Z,3.40
2017-09-23T11:26:09.354Z,4.07
2017-09-23T11:28:35.772Z,4.10
2017-09-23T11:31:01.998Z,4.33
2017-09-23T11:33:28.429Z,6.03
2017-09-23T11:35:54.684Z,7.00
2017-09-23T11:38:20.917Z,7.90
2017-09-23T11:40:47.152Z,9.17
2017-09-23T11:43:13.427Z,24.37
2017-09-23T11:45:39.768Z,10.20
2017-09-23T11:48:06.211Z,10.53
2017-09-23T11:50:32.488Z,11.37
2017-09-23T11:52:58.729Z,8.70
2017-09-23T11:55:25.149Z,7.07
2017-09-23T11:57:51.431Z,4.80
2017-09-23T12:00:17.642Z,5.00
2017-09-23T12:02:43.860Z,5.37
2017-09-23T12:05:10.210Z,6.70
2017-09-23T12:07:36.433Z,4.50
2017-09-23T12:10:02.677Z,10.10
2017-09-23T12:12:28.935Z,3.93
2017-09-23T12:14:55.161Z,4.50
2017-09-23T12:17:21.575Z,4.97
2017-09-23T12:19:47.997Z,8.07
2017-09-23T12:22:14.223Z,6.43
2017-09-23T12:24:40.449Z,3.90
2017-09-23T12:27:06.792Z,4.50
2017-09-23T12:29:33.012Z,4.13
2017-09-23T12:31:59.231Z,3.93
2017-09-23T12:34:25.484Z,4.67
2017-09-23T12:36:51.710Z,12.10
2017-09-23T12:39:17.946Z,5.83
2017-09-23T12:41:44.215Z,5.93
2017-09-23T12:44:10.496Z,7.17
2017-09-23T12:46:36.730Z,9.80
2017-09-23T12:49:03.005Z,8.47
2017-09-23T12:51:29.235Z,11.73
2017-09-23T12:53:55.458Z,7.43
2017-09-23T12:56:21.740Z,11.43
2017-09-23T12:58:47.986Z,6.70
2017-09-23T13:01:14.309Z,6.73
2017-09-23T13:03:40.568Z,6.43
2017-09-23T13:06:06.779Z,7.47
2017-09-23T13:08:33.011Z,6.83
2017-09-23T13:10:59.261Z,8.90
2017-09-23T13:13:25.472Z,15.63
2017-09-23T13:15:51.682Z,11.67
2017-09-23T13:18:17.947Z,6.40
2017-09-23T13:20:44.187Z,4.97
2017-09-23T13:23:10.406Z,10.30
2017-09-23T13:25:36.658Z,4.80
2017-09-23T13:28:02.876Z,11.93
2017-09-23T13:30:29.100Z,15.53
2017-09-23T13:32:55.416Z,6.93
2017-09-23T13:35:21.619Z,8.10
2017-09-23T13:37:47.852Z,8.57
2017-09-23T13:40:14.181Z,9.87
2017-09-23T13:42:40.422Z,6.20
2017-09-23T13:45:06.650Z,4.93
2017-09-23T13:47:32.924Z,4.87
2017-09-23T13:49:59.257Z,9.67
2017-09-23T13:52:25.487Z,6.50
2017-09-23T13:54:51.762Z,5.13
2017-09-23T13:57:17.999Z,14.03
2017-09-23T13:59:44.221Z,12.03
2017-09-23T14:02:10.493Z,7.07
2017-09-23T14:04:36.727Z,5.10
2017-09-23T14:07:02.941Z,6.90
2017-09-23T14:09:29.216Z,11.00
2017-09-23T14:11:55.463Z,9.80
2017-09-23T14:14:21.682Z,7.63
2017-09-23T14:16:47.981Z,8.70
2017-09-23T14:19:14.194Z,5.67
2017-09-23T14:21:40.455Z,8.17
2017-09-23T14:24:06.724Z,6.03
2017-09-23T14:26:32.974Z,9.30
2017-09-23T14:28:59.339Z,8.40
2017-09-23T14:31:25.636Z,9.97
2017-09-23T14:33:52.007Z,9.47
2017-09-23T14:36:18.240Z,8.07
2017-09-23T14:38:44.671Z,6.20
2017-09-23T14:41:10.897Z,7.43
2017-09-23T14:43:37.133Z,11.33
2017-09-23T14:46:03.398Z,13.57
2017-09-23T14:48:29.647Z,6.53
2017-09-23T14:50:55.878Z,17.53
2017-09-23T14:53:22.155Z,8.80
2017-09-23T14:55:48.371Z,8.63
2017-09-23T14:58:14.613Z,7.30
2017-09-23T15:00:40.930Z,13.10
2017-09-23T15:03:07.171Z,12.87
2017-09-23T15:05:33.404Z,10.20
2017-09-23T15:07:59.674Z,20.13
2017-09-23T15:10:25.934Z,10.63
2017-09-23T15:12:52.167Z,12.43
2017-09-23T15:15:18.446Z,11.53
2017-09-23T15:17:44.771Z,13.43
2017-09-23T15:20:11.003Z,16.70
2017-09-23T15:22:37.261Z,11.13
2017-09-23T15:25:03.532Z,15.60
2017-09-23T15:27:29.769Z,11.87
2017-09-23T15:29:56.034Z,16.47
2017-09-23T15:32:22.257Z,14.40
2017-09-23T15:34:48.501Z,12.77
2017-09-23T15:37:14.771Z,10.00
2017-09-23T15:39:41.008Z,11.47
2017-09-23T15:42:07.431Z,11.10
2017-09-23T15:44:33.699Z,18.77
2017-09-23T15:46:59.952Z,9.73
2017-09-23T15:49:26.179Z,14.00
2017-09-23T15:51:52.427Z,15.40
2017-09-23T15:54:18.650Z,11.40
2017-09-23T15:56:44.848Z,12.00
2017-09-23T15:59:11.106Z,17.00
2017-09-23T16:01:37.337Z,17.50
2017-09-23T16:04:03.566Z,13.10
2017-09-23T16:06:29.804Z,19.63
2017-09-23T16:08:56.033Z,27.70
2017-09-23T16:11:22.337Z,23.23
2017-09-23T16:13:48.567Z,14.33
2017-09-23T16:16:14.787Z,24.63
2017-09-23T16:18:41.055Z,16.80
2017-09-23T16:21:07.300Z,11.87
2017-09-23T16:23:33.525Z,14.00
2017-09-23T16:25:59.793Z,12.70
2017-09-23T16:28:26.018Z,17.97
2017-09-23T16:30:52.274Z,18.90
2017-09-23T16:33:18.529Z,21.40
2017-09-23T16:35:44.761Z,9.00
2017-09-23T16:38:10.982Z,16.37
2017-09-23T16:40:37.265Z,13.90
2017-09-23T16:43:03.517Z,13.07
2017-09-23T16:45:29.774Z,42.43
2017-09-23T16:47:56.054Z,20.73
2017-09-23T16:50:22.451Z,20.10
2017-09-23T16:52:48.684Z,24.43
2017-09-23T16:55:14.959Z,25.33
2017-09-23T16:57:41.181Z,19.80
2017-09-23T17:00:07.414Z,24.93
2017-09-23T17:02:33.677Z,18.50
2017-09-23T17:04:59.885Z,18.33
2017-09-23T17:07:26.093Z,14.47
2017-09-23T17:09:52.353Z,13.20
2017-09-23T17:12:18.623Z,15.17
2017-09-23T17:14:44.834Z,14.90
2017-09-23T17:17:11.104Z,22.47
2017-09-23T17:19:37.331Z,28.43
2017-09-23T17:22:03.559Z,18.67
2017-09-23T17:24:29.817Z,17.40
2017-09-23T17:26:56.042Z,17.60
2017-09-23T17:29:22.258Z,26.97
2017-09-23T17:31:48.495Z,25.10
2017-09-23T17:34:14.728Z,19.03
2017-09-23T17:36:40.960Z,17.50
2017-09-23T17:39:07.234Z,17.93
2017-09-23T17:41:33.458Z,37.63
2017-09-23T17:43:59.659Z,19.27
2017-09-23T17:46:25.915Z,24.13
2017-09-23T17:48:52.140Z,21.53
2017-09-23T17:51:18.350Z,18.20
2017-09-23T17:53:44.662Z,33.23
2017-09-23T17:56:10.905Z,18.80
2017-09-23T17:58:37.126Z,23.00
2017-09-23T18:01:03.413Z,17.93
2017-09-23T18:03:29.627Z,27.13
2017-09-23T18:05:55.879Z,18.83
2017-09-23T18:08:22.177Z,10.70
2017-09-23T18:10:48.394Z,14.90
2017-09-23T18:13:14.617Z,13.03
2017-09-23T18:15:40.857Z,21.17
2017-09-23T18:18:07.090Z,15.10
2017-09-23T18:20:33.327Z,14.60
2017-09-23T18:22:59.585Z,19.00
2017-09-23T18:25:25.811Z,18.20
2017-09-23T18:27:52.061Z,21.80
2017-09-23T18:30:18.328Z,21.40
2017-09-23T18:32:44.611Z,20.90
2017-09-23T18:35:10.870Z,19.80
2017-09-23T18:37:37.180Z,15.20
2017-09-23T18:40:03.413Z,22.73
2017-09-23T18:42:29.634Z,14.77
2017-09-23T18:44:55.916Z,21.30
2017-09-23T18:47:22.148Z,22.23
2017-09-23T18:49:48.361Z,19.30
2017-09-23T18:52:14.619Z,26.30
2017-09-23T18:54:40.860Z,20.77
2017-09-23T18:57:07.072Z,18.27
2017-09-23T18:59:33.325Z,19.13
2017-09-23T19:01:59.540Z,13.67
2017-09-23T19:04:25.746Z,16.53
2017-09-23T19:06:52.009Z,15.23
2017-09-23T19:09:18.261Z,17.60
2017-09-23T19:11:44.484Z,19.90
2017-09-23T19:14:10.746Z,11.33
2017-09-23T19:16:36.949Z,13.40
2017-09-23T19:19:03.160Z,13.87
2017-09-23T19:21:29.460Z,14.30
2017-09-23T19:23:55.757Z,11.07
2017-09-23T19:26:22.027Z,17.90
2017-09-23T19:28:48.330Z,12.53
2017-09-23T19:31:14.555Z,11.90
2017-09-23T19:33:40.790Z,13.60
2017-09-23T19:36:07.113Z,18.33
2017-09-23T19:38:33.340Z,17.17
2017-09-23T19:40:59.555Z,22.33
2017-09-23T19:43:25.831Z,15.83
2017-09-23T19:45:52.043Z,13.90
2017-09-23T19:48:18.240Z,21.20
2017-09-23T19:50:44.482Z,13.03
2017-09-23T19:53:10.708Z,12.20
2017-09-23T19:55:36.936Z,14.90
2017-09-23T19:58:03.180Z,16.73
2017-09-23T20:00:29.385Z,16.70
2017-09-23T20:02:55.718Z,13.13
2017-09-23T20:05:21.923Z,14.20
2017-09-23T20:07:48.194Z,13.30
2017-09-23T20:10:14.445Z,14.23
2017-09-23T20:12:40.664Z,23.63
2017-09-23T20:15:06.901Z,11.33
2017-09-23T20:17:33.139Z,12.57
2017-09-23T20:19:59.337Z,11.50
2017-09-23T20:22:25.548Z,10.87
2017-09-23T20:24:51.790Z,14.10
2017-09-23T20:27:18.001Z,11.27
2017-09-23T20:29:44.197Z,21.23
2017-09-23T20:32:10.469Z,17.40
2017-09-23T20:34:36.697Z,13.67
2017-09-23T20:37:02.901Z,17.37
2017-09-23T20:39:29.234Z,15.10
2017-09-23T20:41:55.433Z,10.47
2017-09-23T20:44:21.629Z,21.67
2017-09-23T20:46:47.878Z,13.80
2017-09-23T20:49:14.092Z,13.23
2017-09-23T20:51:40.314Z,11.83
2017-09-23T20:54:06.564Z,15.13
2017-09-23T20:56:32.787Z,20.03
2017-09-23T20:58:58.995Z,11.43
2017-09-23T21:01:25.270Z,16.40
2017-09-23T21:03:51.473Z,11.90
2017-09-23T21:06:17.704Z,16.53
2017-09-23T21:08:43.947Z,15.27
2017-09-23T21:11:10.157Z,15.53
2017-09-23T21:13:36.378Z,16.53
2017-09-23T21:16:02.625Z,11.90
2017-09-23T21:18:28.838Z,12.77
2017-09-23T21:20:55.026Z,10.67
2017-09-23T21:23:21.287Z,22.07
2017-09-23T21:25:47.522Z,11.57
2017-09-23T21:28:13.933Z,19.50
2017-09-23T21:30:40.182Z,12.00
2017-09-23T21:33:06.385Z,16.63
2017-09-23T21:35:32.604Z,10.93
2017-09-23T21:37:58.845Z,16.47
2017-09-23T21:40:25.060Z,16.90
2017-09-23T21:42:51.248Z,14.27
2017-09-23T21:45:17.472Z,15.77
2017-09-23T21:47:43.669Z,15.50
2017-09-23T21:50:09.863Z,12.70
2017-09-23T21:52:36.127Z,16.07
2017-09-23T21:55:02.342Z,12.00
2017-09-23T21:57:28.535Z,17.87
2017-09-23T21:59:54.768Z,14.43
2017-09-23T22:02:21.016Z,12.70
2017-09-23T22:04:47.236Z,12.10
2017-09-23T22:07:13.496Z,11.97
2017-09-23T22:09:39.715Z,11.13
2017-09-23T22:12:05.927Z,11.00
2017-09-23T22:14:32.174Z,18.80
2017-09-23T22:16:58.370Z,13.73
2017-09-23T22:19:24.601Z,15.20
2017-09-23T22:21:50.873Z,11.57
2017-09-23T22:24:17.083Z,13.83
2017-09-23T22:26:43.311Z,13.27
2017-09-23T22:29:09.596Z,18.00
2017-09-23T22:31:35.819Z,12.03
2017-09-23T22:34:02.034Z,14.10
2017-09-23T22:36:28.309Z,15.33
2017-09-23T22:38:54.529Z,12.83
2017-09-23T22:41:20.733Z,12.30
2017-09-23T22:43:46.987Z,11.60
2017-09-23T22:46:13.191Z,16.60
2017-09-23T22:48:39.417Z,21.40
2017-09-23T22:51:05.668Z,12.50
2017-09-23T22:53:31.886Z,15.60
2017-09-23T22:55:58.092Z,13.00
2017-09-23T22:58:24.332Z,16.53
2017-09-23T23:00:50.550Z,12.53
2017-09-23T23:03:16.761Z,14.70
2017-09-23T23:05:43.007Z,12.80
2017-09-23T23:08:09.213Z,12.33
2017-09-23T23:10:35.514Z,13.40
2017-09-23T23:13:01.767Z,15.87
2017-09-23T23:15:27.989Z,14.17
2017-09-23T23:17:54.197Z,11.53
2017-09-23T23:20:20.445Z,17.37
2017-09-23T23:22:46.655Z,10.37
2017-09-23T23:25:12.861Z,25.50
2017-09-23T23:27:39.091Z,11.10
2017-09-23T23:30:05.301Z,15.07
2017-09-23T23:32:31.522Z,16.67
2017-09-23T23:34:57.780Z,13.63
2017-09-23T23:37:24.008Z,11.53
2017-09-23T23:39:50.224Z,16.03
2017-09-23T23:42:16.478Z,13.47
2017-09-23T23:44:42.686Z,15.57
2017-09-23T23:47:08.930Z,16.03
2017-09-23T23:49:35.165Z,15.33
2017-09-23T23:52:01.388Z,14.87
2017-09-23T23:54:27.600Z,12.80
2017-09-23T23:56:53.878Z,14.93
2017-09-23T23:59:20.107Z,11.53
